createdAt,value
2023-02-11T00:00:00.643Z,41.99
2023-02-11T00:00:22.455Z,42.07
2023-02-11T00:00:45.867Z,41.85
2023-02-11T00:02:34.269Z,42.21
2023-02-11T00:03:08.041Z,42.25
2023-02-11T00:03:30.955Z,42.17
2023-02-11T00:03:53.259Z,42.16
2023-02-11T00:04:16.542Z,42.10
2023-02-11T00:04:39.654Z,41.93
2023-02-11T00:05:03.344Z,41.94
2023-02-11T00:05:25.334Z,41.86
2023-02-11T00:05:56.221Z,41.90
2023-02-11T00:06:19.682Z,41.89
2023-02-11T00:06:43.226Z,41.90
2023-02-11T00:07:05.639Z,41.85
2023-02-11T00:07:29.099Z,41.85
2023-02-11T00:07:50.932Z,41.78
2023-02-11T00:08:16.980Z,41.78
2023-02-11T00:08:41.109Z,41.66
2023-02-11T00:09:03.323Z,41.72
2023-02-11T00:09:25.123Z,41.64
2023-02-11T00:09:47.220Z,41.76
2023-02-11T00:10:10.951Z,41.63
2023-02-11T00:10:33.926Z,41.86
2023-02-11T00:10:57.210Z,41.67
2023-02-11T00:11:21.751Z,41.66
2023-02-11T00:11:45.003Z,41.55
2023-02-11T00:12:06.890Z,41.73
2023-02-11T00:12:30.054Z,41.74
2023-02-11T00:12:52.602Z,41.72
2023-02-11T00:13:17.571Z,41.82
2023-02-11T00:13:39.630Z,41.73
2023-02-11T00:14:03.680Z,41.71
2023-02-11T00:14:29.389Z,41.68
2023-02-11T00:14:52.029Z,41.72
2023-02-11T00:15:15.962Z,41.63
2023-02-11T00:15:37.758Z,41.66
2023-02-11T00:16:09.340Z,41.84
2023-02-11T00:16:35.283Z,41.93
2023-02-11T00:16:57.416Z,41.91
2023-02-11T00:17:20.595Z,41.94
2023-02-11T00:17:44.756Z,41.97
2023-02-11T00:18:06.440Z,42.06
2023-02-11T00:18:28.827Z,42.18
2023-02-11T00:18:53.454Z,42.02
2023-02-11T00:19:15.570Z,42.22
2023-02-11T00:19:38.497Z,42.08
2023-02-11T00:20:01.879Z,42.16
2023-02-11T00:20:24.789Z,42.06
2023-02-11T00:20:46.522Z,42.00
2023-02-11T00:21:09.544Z,41.90
2023-02-11T00:21:31.240Z,42.03
2023-02-11T00:21:53.954Z,42.12
2023-02-11T00:22:20.839Z,42.06
2023-02-11T00:22:43.844Z,42.15
2023-02-11T00:23:05.670Z,42.09
2023-02-11T00:23:30.276Z,42.10
2023-02-11T00:23:53.074Z,42.17
2023-02-11T00:24:14.791Z,42.10
2023-02-11T00:24:38.442Z,42.08
2023-02-11T00:25:01.545Z,42.17
2023-02-11T00:25:23.228Z,42.30
2023-02-11T00:25:45.612Z,42.25
2023-02-11T00:26:13.194Z,42.15
2023-02-11T00:26:38.048Z,42.19
2023-02-11T00:27:00.450Z,42.06
2023-02-11T00:27:22.482Z,42.28
2023-02-11T00:27:45.748Z,42.21
2023-02-11T00:28:10.595Z,42.18
2023-02-11T00:28:32.637Z,42.28
2023-02-11T00:28:54.988Z,42.25
2023-02-11T00:29:18.209Z,42.22
2023-02-11T00:29:40.530Z,42.25
2023-02-11T00:30:02.591Z,42.18
2023-02-11T00:30:27.659Z,42.23
2023-02-11T00:30:55.111Z,42.23
2023-02-11T00:31:20.390Z,42.16
2023-02-11T00:31:43.490Z,42.03
2023-02-11T00:32:06.477Z,42.09
2023-02-11T00:32:29.758Z,42.26
2023-02-11T00:32:52.953Z,42.07
2023-02-11T00:33:16.769Z,42.07
2023-02-11T00:33:39.904Z,41.98
2023-02-11T00:34:06.023Z,42.04
2023-02-11T00:34:28.555Z,41.97
2023-02-11T00:34:52.399Z,41.98
2023-02-11T00:35:18.223Z,41.86
2023-02-11T00:35:41.392Z,41.92
2023-02-11T00:36:04.858Z,41.94
2023-02-11T00:36:39.768Z,42.07
2023-02-11T00:37:05.185Z,42.28
2023-02-11T00:37:31.056Z,42.34
2023-02-11T00:37:55.398Z,42.25
2023-02-11T00:38:23.194Z,42.26
2023-02-11T00:38:53.913Z,42.18
2023-02-11T00:39:22.951Z,42.04
2023-02-11T00:39:45.302Z,42.06
2023-02-11T00:40:08.304Z,42.04
2023-02-11T00:40:33.121Z,41.84
2023-02-11T00:41:00.842Z,41.85
2023-02-11T00:41:24.311Z,41.79
2023-02-11T00:41:46.548Z,41.90
2023-02-11T00:42:14.293Z,42.04
2023-02-11T00:42:38.358Z,42.02
2023-02-11T00:43:00.304Z,41.99
2023-02-11T00:43:23.970Z,41.95
2023-02-11T00:43:48.418Z,42.05
2023-02-11T00:44:10.495Z,42.04
2023-02-11T00:44:32.855Z,41.94
2023-02-11T00:44:54.819Z,41.88
2023-02-11T00:45:18.004Z,42.10
2023-02-11T00:45:39.964Z,42.21
2023-02-11T00:46:01.814Z,42.16
2023-02-11T00:46:25.384Z,42.16
2023-02-11T00:46:49.678Z,42.23
2023-02-11T00:47:11.495Z,42.09
2023-02-11T00:47:33.462Z,42.22
2023-02-11T00:47:55.271Z,42.12
2023-02-11T00:48:18.428Z,42.19
2023-02-11T00:48:43.739Z,42.00
2023-02-11T00:49:06.747Z,42.08
2023-02-11T00:49:28.967Z,42.01
2023-02-11T00:49:50.971Z,42.05
2023-02-11T00:50:15.017Z,42.06
2023-02-11T00:50:39.456Z,42.08
2023-02-11T00:51:01.362Z,42.23
2023-02-11T00:51:23.187Z,42.22
2023-02-11T00:51:46.552Z,42.32
2023-02-11T00:52:08.364Z,42.40
2023-02-11T00:52:31.120Z,42.48
2023-02-11T00:52:52.743Z,42.37
2023-02-11T00:53:14.524Z,42.41
2023-02-11T00:53:37.867Z,42.35
2023-02-11T00:53:59.582Z,42.54
2023-02-11T00:54:24.474Z,42.79
2023-02-11T00:54:47.950Z,42.85
2023-02-11T00:55:13.444Z,42.81
2023-02-11T00:55:35.485Z,42.87
2023-02-11T00:55:57.097Z,42.76
2023-02-11T00:56:20.674Z,42.66
2023-02-11T00:56:43.487Z,42.67
2023-02-11T00:57:05.058Z,42.58
2023-02-11T00:57:26.821Z,42.51
2023-02-11T00:57:48.423Z,42.52
2023-02-11T00:58:12.446Z,42.46
2023-02-11T00:58:34.311Z,42.48
2023-02-11T00:58:55.993Z,42.63
2023-02-11T00:59:17.942Z,42.73
2023-02-11T00:59:41.072Z,42.59
2023-02-11T01:00:03.048Z,42.48
2023-02-11T01:00:25.025Z,42.49
2023-02-11T01:00:46.690Z,42.45
2023-02-11T01:01:08.818Z,42.32
2023-02-11T01:01:31.868Z,42.42
2023-02-11T01:01:53.920Z,42.29
2023-02-11T01:02:15.676Z,42.36
2023-02-11T01:02:38.044Z,42.26
2023-02-11T01:03:00.631Z,42.40
2023-02-11T01:03:22.460Z,42.38
2023-02-11T01:03:44.394Z,42.48
2023-02-11T01:04:06.080Z,42.40
2023-02-11T01:04:35.935Z,42.36
2023-02-11T01:04:59.783Z,42.21
2023-02-11T01:05:22.054Z,42.40
2023-02-11T01:05:46.085Z,42.31
2023-02-11T01:06:11.435Z,42.30
2023-02-11T01:06:33.689Z,42.27
2023-02-11T01:06:55.600Z,42.44
2023-02-11T01:07:17.577Z,42.48
2023-02-11T01:07:39.287Z,42.54
2023-02-11T01:08:03.725Z,42.40
2023-02-11T01:08:25.667Z,42.46
2023-02-11T01:08:47.438Z,42.46
2023-02-11T01:09:10.735Z,42.52
2023-02-11T01:09:34.126Z,42.52
2023-02-11T01:09:56.494Z,42.42
2023-02-11T01:10:19.219Z,42.35
2023-02-11T01:10:41.467Z,42.44
2023-02-11T01:11:08.613Z,42.47
2023-02-11T01:11:30.424Z,42.46
2023-02-11T01:11:52.111Z,42.56
2023-02-11T01:12:13.771Z,42.54
2023-02-11T01:12:39.309Z,42.48
2023-02-11T01:13:01.810Z,42.27
2023-02-11T01:13:24.418Z,42.54
2023-02-11T01:13:49.445Z,42.67
2023-02-11T01:14:12.414Z,42.61
2023-02-11T01:14:34.423Z,42.73
2023-02-11T01:14:57.841Z,42.84
2023-02-11T01:15:20.932Z,42.82
2023-02-11T01:15:47.962Z,42.76
2023-02-11T01:16:14.210Z,42.85
2023-02-11T01:16:38.092Z,42.93
2023-02-11T01:17:09.043Z,42.95
2023-02-11T01:17:32.286Z,42.88
2023-02-11T01:17:58.095Z,42.80
2023-02-11T01:18:21.819Z,42.73
2023-02-11T01:18:48.417Z,42.65
2023-02-11T01:19:14.969Z,42.75
2023-02-11T01:19:41.340Z,42.74
2023-02-11T01:20:05.748Z,42.73
2023-02-11T01:20:37.680Z,42.68
2023-02-11T01:21:06.529Z,42.73
2023-02-11T01:21:29.672Z,42.94
2023-02-11T01:21:54.788Z,42.86
2023-02-11T01:22:26.689Z,43.04
2023-02-11T01:22:52.732Z,43.11
2023-02-11T01:23:16.124Z,43.10
2023-02-11T01:23:48.170Z,43.16
2023-02-11T01:24:10.993Z,43.05
2023-02-11T01:24:33.978Z,43.09
2023-02-11T01:24:56.461Z,43.00
2023-02-11T01:25:22.430Z,42.99
2023-02-11T01:25:46.450Z,42.96
2023-02-11T01:26:08.485Z,43.14
2023-02-11T01:26:43.183Z,43.05
2023-02-11T01:27:08.906Z,43.04
2023-02-11T01:27:31.546Z,43.03
2023-02-11T01:27:56.945Z,43.04
2023-02-11T01:28:21.593Z,43.01
2023-02-11T01:28:45.262Z,42.92
2023-02-11T01:29:07.508Z,43.02
2023-02-11T01:29:29.496Z,42.91
2023-02-11T01:29:52.786Z,42.89
2023-02-11T01:30:33.863Z,42.96
2023-02-11T01:31:03.305Z,42.87
2023-02-11T01:31:44.188Z,42.91
2023-02-11T01:32:08.276Z,42.87
2023-02-11T01:32:37.821Z,42.89
2023-02-11T01:33:05.149Z,42.88
2023-02-11T01:33:37.852Z,42.98
2023-02-11T01:34:02.550Z,42.96
2023-02-11T01:34:29.962Z,42.98
2023-02-11T01:34:52.529Z,43.06
2023-02-11T01:35:14.602Z,42.93
2023-02-11T01:35:38.387Z,42.93
2023-02-11T01:36:04.473Z,42.95
2023-02-11T01:36:27.519Z,43.02
2023-02-11T01:36:50.498Z,42.95
2023-02-11T01:38:17.534Z,43.03
2023-02-11T01:38:41.372Z,42.98
2023-02-11T01:39:03.785Z,43.11
2023-02-11T01:39:25.564Z,43.17
2023-02-11T01:39:49.847Z,43.02
2023-02-11T01:40:16.078Z,43.01
2023-02-11T01:40:38.338Z,43.22
2023-02-11T01:41:04.092Z,43.27
2023-02-11T01:41:27.134Z,43.31
2023-02-11T01:41:52.687Z,43.24
2023-02-11T01:42:16.433Z,43.31
2023-02-11T01:42:38.680Z,43.20
2023-02-11T01:43:01.701Z,43.23
2023-02-11T01:43:24.420Z,43.17
2023-02-11T01:43:49.876Z,43.13
2023-02-11T01:44:26.168Z,43.04
2023-02-11T01:44:52.661Z,43.14
2023-02-11T01:45:52.810Z,43.25
2023-02-11T01:46:25.998Z,43.11
2023-02-11T01:46:49.830Z,43.22
2023-02-11T01:47:14.358Z,43.10
2023-02-11T01:47:38.282Z,43.11
2023-02-11T01:48:02.747Z,43.23
2023-02-11T01:48:29.258Z,43.42
2023-02-11T01:48:56.486Z,43.35
2023-02-11T01:49:21.924Z,43.34
2023-02-11T01:49:47.431Z,43.33
2023-02-11T01:50:09.345Z,43.33
2023-02-11T01:50:31.796Z,43.36
2023-02-11T01:51:00.670Z,43.28
2023-02-11T01:51:27.492Z,43.35
2023-02-11T01:51:56.745Z,43.31
2023-02-11T01:52:24.098Z,43.32
2023-02-11T01:52:47.227Z,43.24
2023-02-11T01:53:26.553Z,43.48
2023-02-11T01:54:09.020Z,43.36
2023-02-11T01:54:55.901Z,43.26
2023-02-11T01:55:36.564Z,43.31
2023-02-11T01:56:17.691Z,43.24
2023-02-11T01:57:02.683Z,43.43
2023-02-11T01:57:29.649Z,43.32
2023-02-11T01:57:57.158Z,43.34
2023-02-11T01:58:22.663Z,43.40
2023-02-11T01:58:47.381Z,43.51
2023-02-11T01:59:13.359Z,43.64
2023-02-11T01:59:49.484Z,43.67
2023-02-11T02:00:15.349Z,43.93
2023-02-11T02:00:39.482Z,43.86
2023-02-11T02:01:05.421Z,43.76
2023-02-11T02:01:33.960Z,43.87
2023-02-11T02:02:03.475Z,43.76
2023-02-11T02:02:30.207Z,43.75
2023-02-11T02:03:00.197Z,43.61
2023-02-11T02:03:25.138Z,43.65
2023-02-11T02:03:50.044Z,43.58
2023-02-11T02:04:13.223Z,43.46
2023-02-11T02:04:39.948Z,43.66
2023-02-11T02:05:25.476Z,43.51
2023-02-11T02:05:52.917Z,43.48
2023-02-11T02:06:19.696Z,43.42
2023-02-11T02:06:49.167Z,43.46
2023-02-11T02:07:23.702Z,43.60
2023-02-11T02:07:54.675Z,43.39
2023-02-11T02:08:23.421Z,43.45
2023-02-11T02:08:56.865Z,43.43
2023-02-11T02:09:23.722Z,43.29
2023-02-11T02:09:52.022Z,43.31
2023-02-11T02:10:20.367Z,43.38
2023-02-11T02:10:46.896Z,43.33
2023-02-11T02:11:11.907Z,43.28
2023-02-11T02:11:33.858Z,43.20
2023-02-11T02:11:55.946Z,43.18
2023-02-11T02:12:22.269Z,43.24
2023-02-11T02:12:45.671Z,43.21
2023-02-11T02:13:07.885Z,43.34
2023-02-11T02:13:32.739Z,43.19
2023-02-11T02:13:57.418Z,43.21
2023-02-11T02:14:19.906Z,43.34
2023-02-11T02:14:44.540Z,43.32
2023-02-11T02:15:19.241Z,43.39
2023-02-11T02:15:46.095Z,43.29
2023-02-11T02:16:12.802Z,43.35
2023-02-11T02:16:37.057Z,43.35
2023-02-11T02:17:00.429Z,43.39
2023-02-11T02:17:34.298Z,43.34
2023-02-11T02:18:05.115Z,43.47
2023-02-11T02:18:39.700Z,43.38
2023-02-11T02:19:21.457Z,43.40
2023-02-11T02:20:19.939Z,43.44
2023-02-11T02:21:22.454Z,43.49
2023-02-11T02:22:21.359Z,43.47
2023-02-11T02:23:33.740Z,43.38
2023-02-11T02:24:31.541Z,43.49
2023-02-11T02:25:03.234Z,43.30
2023-02-11T02:25:54.047Z,43.32
2023-02-11T02:26:53.234Z,43.43
2023-02-11T02:27:34.328Z,43.34
2023-02-11T02:28:15.519Z,43.70
2023-02-11T02:29:00.148Z,43.58
2023-02-11T02:29:56.027Z,43.53
2023-02-11T02:30:42.849Z,43.64
2023-02-11T02:31:23.153Z,43.65
2023-02-11T02:32:16.651Z,43.55
2023-02-11T02:32:52.231Z,43.59
2023-02-11T02:33:48.007Z,43.64
2023-02-11T02:34:18.296Z,43.63
2023-02-11T02:34:49.523Z,43.57
2023-02-11T02:35:27.352Z,43.61
2023-02-11T02:36:03.014Z,43.70
2023-02-11T02:36:32.829Z,43.71
2023-02-11T02:37:01.103Z,43.55
2023-02-11T02:37:33.218Z,43.62
2023-02-11T02:38:03.735Z,43.43
2023-02-11T02:38:31.589Z,43.52
2023-02-11T02:38:58.851Z,43.41
2023-02-11T02:39:27.101Z,43.43
2023-02-11T02:39:50.376Z,43.24
2023-02-11T02:40:23.142Z,43.40
2023-02-11T02:40:54.049Z,43.37
2023-02-11T02:41:20.036Z,43.46
2023-02-11T02:41:44.993Z,43.50
2023-02-11T02:42:08.709Z,43.51
2023-02-11T02:42:34.257Z,43.72
2023-02-11T02:43:05.855Z,43.67
2023-02-11T02:43:33.279Z,43.59
2023-02-11T02:43:55.399Z,43.79
2023-02-11T02:44:23.160Z,43.76
2023-02-11T02:44:53.429Z,43.78
2023-02-11T02:45:16.109Z,43.89
2023-02-11T02:45:41.019Z,43.97
2023-02-11T02:46:16.675Z,44.04
2023-02-11T02:46:41.030Z,43.96
2023-02-11T02:47:02.940Z,44.04
2023-02-11T02:47:30.749Z,43.99
2023-02-11T02:48:00.811Z,43.99
2023-02-11T02:48:29.716Z,44.23
2023-02-11T02:48:56.876Z,44.25
2023-02-11T02:49:18.596Z,44.46
2023-02-11T02:49:41.262Z,44.52
2023-02-11T02:50:05.703Z,44.60
2023-02-11T02:50:34.373Z,44.61
2023-02-11T02:51:11.727Z,44.64
2023-02-11T02:52:07.052Z,44.69
2023-02-11T02:52:39.417Z,44.62
2023-02-11T02:53:19.616Z,44.57
2023-02-11T02:53:55.279Z,44.62
2023-02-11T02:54:37.338Z,44.65
2023-02-11T02:55:35.980Z,44.76
2023-02-11T02:56:07.284Z,44.46
2023-02-11T02:56:36.453Z,44.58
2023-02-11T02:57:16.867Z,44.46
2023-02-11T02:57:55.036Z,44.67
2023-02-11T02:58:46.045Z,44.74
2023-02-11T02:59:31.375Z,44.93
2023-02-11T03:00:13.054Z,45.03
2023-02-11T03:00:41.980Z,44.98
2023-02-11T03:01:14.463Z,44.92
2023-02-11T03:01:45.814Z,44.87
2023-02-11T03:02:15.167Z,44.88
2023-02-11T03:02:47.893Z,44.73
2023-02-11T03:03:23.871Z,44.67
2023-02-11T03:03:53.355Z,44.74
2023-02-11T03:04:25.313Z,44.76
2023-02-11T03:04:54.715Z,44.76
2023-02-11T03:05:21.315Z,45.17
2023-02-11T03:05:51.193Z,45.09
2023-02-11T03:06:17.894Z,45.15
2023-02-11T03:06:49.013Z,45.26
2023-02-11T03:07:22.122Z,45.10
2023-02-11T03:07:49.209Z,45.19
2023-02-11T03:08:17.508Z,45.28
2023-02-11T03:08:44.338Z,45.43
2023-02-11T03:09:11.537Z,45.57
2023-02-11T03:09:39.664Z,45.89
2023-02-11T03:10:08.242Z,45.88
2023-02-11T03:10:33.352Z,45.86
2023-02-11T03:10:57.979Z,45.72
2023-02-11T03:11:22.220Z,45.77
2023-02-11T03:11:44.378Z,45.66
2023-02-11T03:12:07.418Z,45.62
2023-02-11T03:12:32.833Z,45.69
2023-02-11T03:12:56.627Z,45.57
2023-02-11T03:13:23.154Z,45.50
2023-02-11T03:13:49.093Z,45.53
2023-02-11T03:14:16.858Z,45.54
2023-02-11T03:14:40.680Z,45.45
2023-02-11T03:15:06.616Z,45.20
2023-02-11T03:15:32.701Z,45.20
2023-02-11T03:15:59.037Z,45.11
2023-02-11T03:16:25.678Z,45.12
2023-02-11T03:16:50.581Z,45.13
2023-02-11T03:17:16.129Z,45.05
2023-02-11T03:17:42.775Z,45.08
2023-02-11T03:18:08.993Z,45.06
2023-02-11T03:18:31.731Z,45.02
2023-02-11T03:19:00.835Z,44.91
2023-02-11T03:19:28.145Z,44.88
2023-02-11T03:19:51.825Z,44.92
2023-02-11T03:20:18.865Z,44.98
2023-02-11T03:20:44.509Z,44.81
2023-02-11T03:21:10.378Z,44.79
2023-02-11T03:21:36.797Z,44.72
2023-02-11T03:21:59.699Z,44.69
2023-02-11T03:22:29.442Z,44.80
2023-02-11T03:22:56.038Z,44.72
2023-02-11T03:23:22.688Z,44.59
2023-02-11T03:23:49.962Z,44.72
2023-02-11T03:24:18.506Z,44.60
2023-02-11T03:24:42.362Z,44.56
2023-02-11T03:25:05.491Z,44.55
2023-02-11T03:25:34.831Z,44.50
2023-02-11T03:26:01.952Z,44.43
2023-02-11T03:26:28.649Z,44.68
2023-02-11T03:26:54.022Z,44.59
2023-02-11T03:27:20.359Z,44.46
2023-02-11T03:27:49.204Z,44.56
2023-02-11T03:28:18.493Z,44.67
2023-02-11T03:28:46.486Z,44.68
2023-02-11T03:29:16.753Z,44.56
2023-02-11T03:29:44.001Z,44.51
2023-02-11T03:30:11.319Z,44.58
2023-02-11T03:30:40.277Z,44.72
2023-02-11T03:31:11.303Z,44.64
2023-02-11T03:31:40.221Z,44.59
2023-02-11T03:32:07.499Z,44.64
2023-02-11T03:32:37.701Z,44.61
2023-02-11T03:33:07.080Z,44.34
2023-02-11T03:33:36.102Z,44.40
2023-02-11T03:34:02.634Z,44.60
2023-02-11T03:34:32.991Z,44.58
2023-02-11T03:34:59.525Z,44.49
2023-02-11T03:35:23.640Z,44.50
2023-02-11T03:35:50.980Z,44.52
2023-02-11T03:36:19.206Z,44.35
2023-02-11T03:36:45.994Z,44.34
2023-02-11T03:37:12.493Z,44.36
2023-02-11T03:37:42.474Z,44.37
2023-02-11T03:38:07.693Z,44.43
2023-02-11T03:38:33.219Z,44.41
2023-02-11T03:38:59.595Z,44.53
2023-02-11T03:39:26.014Z,44.37
2023-02-11T03:39:51.938Z,44.47
2023-02-11T03:40:17.588Z,44.54
2023-02-11T03:40:42.642Z,44.23
2023-02-11T03:41:10.227Z,44.36
2023-02-11T03:41:34.278Z,44.39
2023-02-11T03:41:59.069Z,44.27
2023-02-11T03:42:25.099Z,44.22
2023-02-11T03:42:51.605Z,44.26
2023-02-11T03:43:17.890Z,44.38
2023-02-11T03:43:44.330Z,44.27
2023-02-11T03:44:10.487Z,44.18
2023-02-11T03:44:37.454Z,44.21
2023-02-11T03:45:05.220Z,44.32
2023-02-11T03:45:29.199Z,44.28
2023-02-11T03:45:54.143Z,44.26
2023-02-11T03:46:19.564Z,44.18
2023-02-11T03:46:45.859Z,44.14
2023-02-11T03:47:12.329Z,44.27
2023-02-11T03:47:40.939Z,44.27
2023-02-11T03:48:07.730Z,44.02
2023-02-11T03:48:37.393Z,44.35
2023-02-11T03:49:03.052Z,44.43
2023-02-11T03:49:29.080Z,44.52
2023-02-11T03:49:54.992Z,44.57
2023-02-11T03:50:19.426Z,44.71
2023-02-11T03:50:42.393Z,44.65
2023-02-11T03:51:08.751Z,44.67
2023-02-11T03:51:34.742Z,44.89
2023-02-11T03:52:01.095Z,44.89
2023-02-11T03:52:25.512Z,44.93
2023-02-11T03:52:52.251Z,45.11
2023-02-11T03:53:15.460Z,45.16
2023-02-11T03:53:46.600Z,45.12
2023-02-11T03:54:15.572Z,45.02
2023-02-11T03:54:41.999Z,45.03
2023-02-11T03:55:11.570Z,44.85
2023-02-11T03:55:37.840Z,44.95
2023-02-11T03:56:04.011Z,44.97
2023-02-11T03:56:29.784Z,44.93
2023-02-11T03:56:53.906Z,44.91
2023-02-11T03:57:16.551Z,44.78
2023-02-11T03:57:40.048Z,44.72
2023-02-11T03:58:02.058Z,44.86
2023-02-11T03:58:25.461Z,44.81
2023-02-11T03:58:49.176Z,44.77
2023-02-11T03:59:12.193Z,44.84
2023-02-11T03:59:50.105Z,44.84
2023-02-11T04:00:13.947Z,44.76
2023-02-11T04:00:41.225Z,44.83
2023-02-11T04:01:05.140Z,44.78
2023-02-11T04:01:27.292Z,44.83
2023-02-11T04:01:49.166Z,44.92
2023-02-11T04:02:12.099Z,45.07
2023-02-11T04:02:36.489Z,44.96
2023-02-11T04:02:58.312Z,44.98
2023-02-11T04:03:22.968Z,45.04
2023-02-11T04:03:44.898Z,45.02
2023-02-11T04:04:06.947Z,44.89
2023-02-11T04:04:28.999Z,44.81
2023-02-11T04:04:52.069Z,44.88
2023-02-11T04:05:15.407Z,44.86
2023-02-11T04:05:37.964Z,44.95
2023-02-11T04:06:00.140Z,44.90
2023-02-11T04:06:25.122Z,45.05
2023-02-11T04:06:50.183Z,44.95
2023-02-11T04:07:12.912Z,45.13
2023-02-11T04:07:34.897Z,45.11
2023-02-11T04:07:58.561Z,45.10
2023-02-11T04:08:21.177Z,45.16
2023-02-11T04:08:42.833Z,45.14
2023-02-11T04:09:05.359Z,45.04
2023-02-11T04:09:28.308Z,45.15
2023-02-11T04:09:50.279Z,45.10
2023-02-11T04:10:12.837Z,45.15
2023-02-11T04:10:34.671Z,45.17
2023-02-11T04:10:57.782Z,45.13
2023-02-11T04:11:19.601Z,45.07
2023-02-11T04:11:41.586Z,45.05
2023-02-11T04:12:04.075Z,45.07
2023-02-11T04:12:27.695Z,45.15
2023-02-11T04:12:49.435Z,45.06
2023-02-11T04:13:11.217Z,45.05
2023-02-11T04:13:33.030Z,44.94
2023-02-11T04:13:54.730Z,44.91
2023-02-11T04:14:17.646Z,44.85
2023-02-11T04:14:39.484Z,44.87
2023-02-11T04:15:01.415Z,45.08
2023-02-11T04:15:23.304Z,44.94
2023-02-11T04:15:48.535Z,44.89
2023-02-11T04:16:10.757Z,44.97
2023-02-11T04:16:32.496Z,44.96
2023-02-11T04:16:54.267Z,45.01
2023-02-11T04:17:18.357Z,44.90
2023-02-11T04:17:40.372Z,44.86
2023-02-11T04:18:03.561Z,44.83
2023-02-11T04:18:27.620Z,45.07
2023-02-11T04:18:50.875Z,45.01
2023-02-11T04:19:12.994Z,44.96
2023-02-11T04:19:34.768Z,44.92
2023-02-11T04:19:57.758Z,44.80
2023-02-11T04:20:19.773Z,44.67
2023-02-11T04:20:41.511Z,44.77
2023-02-11T04:21:05.228Z,44.68
2023-02-11T04:21:27.142Z,44.61
2023-02-11T04:21:51.018Z,44.74
2023-02-11T04:22:13.229Z,44.69
2023-02-11T04:22:35.206Z,44.74
2023-02-11T04:22:57.370Z,44.71
2023-02-11T04:23:20.343Z,44.69
2023-02-11T04:23:42.587Z,44.94
2023-02-11T04:24:05.688Z,44.86
2023-02-11T04:24:27.748Z,44.95
2023-02-11T04:24:53.047Z,44.95
2023-02-11T04:25:17.824Z,44.82
2023-02-11T04:25:39.818Z,44.95
2023-02-11T04:26:04.155Z,44.87
2023-02-11T04:26:26.022Z,44.91
2023-02-11T04:26:49.640Z,44.93
2023-02-11T04:27:12.864Z,44.87
2023-02-11T04:27:35.495Z,44.89
2023-02-11T04:27:59.940Z,44.79
2023-02-11T04:28:24.107Z,44.89
2023-02-11T04:28:49.032Z,44.99
2023-02-11T04:29:12.577Z,45.01
2023-02-11T04:29:34.817Z,45.01
2023-02-11T04:29:57.790Z,44.79
2023-02-11T04:30:21.346Z,44.83
2023-02-11T04:30:44.355Z,44.79
2023-02-11T04:31:06.835Z,44.85
2023-02-11T04:31:29.215Z,44.88
2023-02-11T04:31:53.282Z,44.77
2023-02-11T04:32:16.899Z,44.91
2023-02-11T04:32:42.269Z,44.91
2023-02-11T04:33:05.861Z,44.93
2023-02-11T04:33:30.638Z,44.87
2023-02-11T04:33:52.934Z,45.01
2023-02-11T04:34:14.987Z,45.02
2023-02-11T04:34:38.175Z,45.07
2023-02-11T04:35:00.164Z,45.05
2023-02-11T04:35:21.923Z,45.03
2023-02-11T04:35:44.946Z,45.10
2023-02-11T04:36:07.530Z,44.99
2023-02-11T04:36:30.710Z,45.15
2023-02-11T04:36:52.539Z,45.22
2023-02-11T04:37:15.212Z,45.20
2023-02-11T04:37:37.245Z,45.11
2023-02-11T04:38:00.212Z,44.90
2023-02-11T04:38:24.291Z,45.00
2023-02-11T04:38:46.338Z,44.92
2023-02-11T04:39:08.217Z,45.06
2023-02-11T04:39:29.979Z,45.05
2023-02-11T04:39:52.932Z,44.81
2023-02-11T04:40:15.155Z,44.85
2023-02-11T04:40:37.247Z,44.95
2023-02-11T04:41:00.598Z,44.80
2023-02-11T04:41:22.308Z,45.07
2023-02-11T04:41:45.051Z,44.86
2023-02-11T04:42:07.250Z,44.94
2023-02-11T04:42:29.567Z,44.97
2023-02-11T04:42:51.578Z,44.96
2023-02-11T04:43:14.555Z,44.94
2023-02-11T04:43:36.550Z,45.02
2023-02-11T04:43:58.385Z,45.01
2023-02-11T04:44:20.503Z,45.12
2023-02-11T04:44:42.307Z,45.17
2023-02-11T04:45:05.650Z,45.23
2023-02-11T04:45:28.977Z,45.23
2023-02-11T04:45:51.340Z,45.03
2023-02-11T04:46:13.528Z,45.00
2023-02-11T04:46:36.832Z,45.09
2023-02-11T04:46:59.387Z,45.06
2023-02-11T04:47:21.178Z,45.13
2023-02-11T04:47:43.241Z,45.15
2023-02-11T04:48:05.105Z,45.08
2023-02-11T04:48:28.140Z,45.04
2023-02-11T04:48:51.392Z,45.15
2023-02-11T04:49:17.303Z,45.25
2023-02-11T04:49:39.146Z,45.16
2023-02-11T04:50:02.423Z,45.31
2023-02-11T04:50:24.196Z,45.26
2023-02-11T04:50:46.035Z,45.32
2023-02-11T04:51:07.832Z,45.20
2023-02-11T04:51:29.622Z,45.32
2023-02-11T04:51:52.766Z,45.21
2023-02-11T04:52:14.821Z,45.19
2023-02-11T04:52:37.020Z,45.15
2023-02-11T04:52:59.427Z,45.21
2023-02-11T04:53:23.949Z,45.14
2023-02-11T04:53:45.835Z,45.12
2023-02-11T04:54:07.537Z,44.94
2023-02-11T04:54:29.247Z,45.14
2023-02-11T04:54:53.539Z,45.08
2023-02-11T04:55:16.866Z,45.14
2023-02-11T04:55:39.858Z,45.22
2023-02-11T04:56:01.796Z,45.33
2023-02-11T04:56:25.174Z,45.27
2023-02-11T04:56:47.186Z,45.46
2023-02-11T04:57:09.402Z,45.34
2023-02-11T04:57:31.123Z,45.26
2023-02-11T04:57:52.922Z,45.31
2023-02-11T04:58:15.854Z,45.12
2023-02-11T04:58:37.860Z,45.06
2023-02-11T04:58:59.658Z,45.20
2023-02-11T04:59:21.526Z,45.06
2023-02-11T04:59:44.272Z,45.05
2023-02-11T05:00:09.971Z,45.10
2023-02-11T05:00:31.644Z,45.01
2023-02-11T05:00:54.781Z,44.94
2023-02-11T05:01:18.728Z,44.99
2023-02-11T05:01:40.846Z,44.87
2023-02-11T05:02:05.190Z,44.74
2023-02-11T05:02:29.566Z,44.86
2023-02-11T05:02:51.591Z,44.79
2023-02-11T05:03:13.632Z,44.88
2023-02-11T05:03:35.674Z,44.79
2023-02-11T05:03:59.058Z,44.75
2023-02-11T05:04:22.712Z,44.68
2023-02-11T05:04:44.977Z,44.74
2023-02-11T05:05:07.122Z,44.74
2023-02-11T05:05:29.025Z,44.63
2023-02-11T05:05:51.846Z,44.63
2023-02-11T05:06:16.244Z,44.75
2023-02-11T05:06:39.009Z,44.74
2023-02-11T05:07:00.865Z,44.80
2023-02-11T05:07:23.061Z,44.93
2023-02-11T05:07:46.134Z,44.98
2023-02-11T05:08:10.407Z,45.08
2023-02-11T05:08:32.562Z,45.15
2023-02-11T05:08:54.664Z,45.16
2023-02-11T05:09:16.859Z,44.99
2023-02-11T05:09:40.213Z,45.18
2023-02-11T05:10:02.869Z,45.07
2023-02-11T05:10:26.276Z,45.19
2023-02-11T05:10:48.121Z,45.07
2023-02-11T05:11:17.260Z,45.09
2023-02-11T05:11:39.533Z,45.06
2023-02-11T05:12:01.574Z,45.18
2023-02-11T05:12:23.604Z,45.24
2023-02-11T05:12:46.594Z,45.24
2023-02-11T05:13:08.605Z,45.19
2023-02-11T05:13:31.212Z,45.24
2023-02-11T05:13:54.314Z,45.37
2023-02-11T05:14:17.614Z,45.19
2023-02-11T05:14:39.824Z,45.24
2023-02-11T05:15:01.627Z,45.14
2023-02-11T05:15:25.918Z,45.20
2023-02-11T05:15:48.135Z,45.17
2023-02-11T05:16:11.286Z,45.16
2023-02-11T05:16:33.234Z,45.22
2023-02-11T05:16:55.258Z,45.13
2023-02-11T05:17:18.071Z,45.09
2023-02-11T05:17:40.781Z,45.02
2023-02-11T05:18:02.394Z,45.20
2023-02-11T05:18:24.555Z,45.35
2023-02-11T05:18:46.631Z,45.14
2023-02-11T05:19:12.373Z,45.13
2023-02-11T05:19:34.432Z,45.10
2023-02-11T05:19:56.089Z,45.23
2023-02-11T05:20:18.064Z,45.24
2023-02-11T05:20:41.009Z,45.19
2023-02-11T05:21:08.175Z,45.25
2023-02-11T05:21:30.042Z,45.28
2023-02-11T05:22:02.179Z,45.26
2023-02-11T05:22:26.488Z,45.18
2023-02-11T05:22:48.327Z,45.34
2023-02-11T05:23:11.409Z,45.45
2023-02-11T05:23:34.441Z,45.36
2023-02-11T05:23:56.318Z,45.59
2023-02-11T05:24:19.266Z,45.52
2023-02-11T05:24:41.162Z,45.58
2023-02-11T05:25:03.154Z,45.63
2023-02-11T05:25:26.091Z,45.65
2023-02-11T05:25:49.420Z,45.59
2023-02-11T05:26:13.125Z,45.61
2023-02-11T05:26:35.207Z,45.58
2023-02-11T05:26:58.162Z,45.70
2023-02-11T05:27:19.909Z,45.66
2023-02-11T05:27:41.858Z,45.60
2023-02-11T05:28:05.837Z,45.76
2023-02-11T05:28:29.201Z,45.48
2023-02-11T05:28:51.149Z,45.58
2023-02-11T05:29:12.975Z,45.54
2023-02-11T05:29:35.035Z,45.59
2023-02-11T05:29:58.273Z,45.44
2023-02-11T05:30:20.426Z,45.42
2023-02-11T05:30:42.291Z,45.47
2023-02-11T05:31:05.200Z,45.38
2023-02-11T05:31:28.366Z,45.40
2023-02-11T05:31:50.445Z,45.50
2023-02-11T05:32:12.247Z,45.68
2023-02-11T05:32:34.097Z,45.68
2023-02-11T05:32:55.815Z,45.76
2023-02-11T05:33:19.005Z,45.80